sensor_id;sensor_type;location;lat;lon;timestamp;P1;durP1;ratioP1;P2;durP2;ratioP2
42092;SDS011;28974;50.316;18.960;2022-10-04T00:12:39;38.42;;;13.20;;
42092;SDS011;28974;50.316;18.960;2022-10-04T00:25:13;36.22;;;11.60;;
42092;SDS011;28974;50.316;18.960;2022-10-04T00:37:16;38.83;;;17.10;;
42092;SDS011;28974;50.316;18.960;2022-10-04T00:49:17;35.80;;;14.98;;
42092;SDS011;28974;50.316;18.960;2022-10-04T01:01:20;26.88;;;8.77;;
42092;SDS011;28974;50.316;18.960;2022-10-04T01:13:30;42.28;;;12.95;;
42092;SDS011;28974;50.316;18.960;2022-10-04T01:26:04;26.98;;;8.75;;
42092;SDS011;28974;50.316;18.960;2022-10-04T01:37:58;20.27;;;7.73;;
42092;SDS011;28974;50.316;18.960;2022-10-04T01:49:59;37.08;;;8.23;;
42092;SDS011;28974;50.316;18.960;2022-10-04T02:02:03;27.60;;;7.20;;
42092;SDS011;28974;50.316;18.960;2022-10-04T02:14:10;23.55;;;7.20;;
42092;SDS011;28974;50.316;18.960;2022-10-04T02:26:11;36.88;;;10.35;;
42092;SDS011;28974;50.316;18.960;2022-10-04T02:38:23;31.85;;;10.88;;
42092;SDS011;28974;50.316;18.960;2022-10-04T02:50:29;28.05;;;8.30;;
42092;SDS011;28974;50.316;18.960;2022-10-04T03:02:30;39.25;;;9.45;;
42092;SDS011;28974;50.316;18.960;2022-10-04T03:14:30;33.72;;;11.48;;
42092;SDS011;28974;50.316;18.960;2022-10-04T03:26:32;27.13;;;9.90;;
42092;SDS011;28974;50.316;18.960;2022-10-04T03:38:36;27.38;;;10.23;;
42092;SDS011;28974;50.316;18.960;2022-10-04T03:50:43;29.05;;;9.93;;
42092;SDS011;28974;50.316;18.960;2022-10-04T04:02:48;27.25;;;8.52;;
42092;SDS011;28974;50.316;18.960;2022-10-04T04:14:49;27.38;;;8.85;;
42092;SDS011;28974;50.316;18.960;2022-10-04T04:26:55;36.28;;;7.35;;
42092;SDS011;28974;50.316;18.960;2022-10-04T04:51:36;35.78;;;11.93;;
42092;SDS011;28974;50.316;18.960;2022-10-04T05:03:36;49.03;;;21.63;;
42092;SDS011;28974;50.316;18.960;2022-10-04T05:15:38;43.83;;;11.48;;
42092;SDS011;28974;50.316;18.960;2022-10-04T05:27:40;30.85;;;8.48;;
42092;SDS011;28974;50.316;18.960;2022-10-04T05:39:47;39.45;;;10.50;;
42092;SDS011;28974;50.316;18.960;2022-10-04T05:51:58;28.10;;;7.97;;
42092;SDS011;28974;50.316;18.960;2022-10-04T06:28:18;35.67;;;10.50;;
42092;SDS011;28974;50.316;18.960;2022-10-04T07:04:54;24.45;;;8.00;;
42092;SDS011;28974;50.316;18.960;2022-10-04T07:16:57;27.58;;;7.32;;
42092;SDS011;28974;50.316;18.960;2022-10-04T07:28:59;29.55;;;8.07;;
42092;SDS011;28974;50.316;18.960;2022-10-04T07:41:27;18.73;;;6.70;;
42092;SDS011;28974;50.316;18.960;2022-10-04T08:05:36;20.77;;;5.38;;
42092;SDS011;28974;50.316;18.960;2022-10-04T08:29:45;15.15;;;3.88;;
42092;SDS011;28974;50.316;18.960;2022-10-04T08:41:58;15.25;;;4.63;;
42092;SDS011;28974;50.316;18.960;2022-10-04T09:43:06;12.57;;;3.25;;
42092;SDS011;28974;50.316;18.960;2022-10-04T10:07:31;17.42;;;3.38;;
42092;SDS011;28974;50.316;18.960;2022-10-04T10:31:54;14.43;;;2.40;;
42092;SDS011;28974;50.316;18.960;2022-10-04T10:56:04;12.88;;;3.15;;
42092;SDS011;28974;50.316;18.960;2022-10-04T11:32:27;12.50;;;2.88;;
42092;SDS011;28974;50.316;18.960;2022-10-04T12:33:32;6.18;;;1.98;;
42092;SDS011;28974;50.316;18.960;2022-10-04T12:45:52;6.70;;;2.42;;
42092;SDS011;28974;50.316;18.960;2022-10-04T12:57:59;4.90;;;1.85;;
42092;SDS011;28974;50.316;18.960;2022-10-04T13:22:22;21.88;;;5.55;;
42092;SDS011;28974;50.316;18.960;2022-10-04T13:46:29;6.85;;;2.35;;
42092;SDS011;28974;50.316;18.960;2022-10-04T13:58:45;13.80;;;3.35;;
42092;SDS011;28974;50.316;18.960;2022-10-04T14:35:16;9.40;;;3.37;;
42092;SDS011;28974;50.316;18.960;2022-10-04T14:59:53;16.23;;;3.10;;
42092;SDS011;28974;50.316;18.960;2022-10-04T15:11:51;12.48;;;3.88;;
42092;SDS011;28974;50.316;18.960;2022-10-04T15:23:59;13.15;;;5.55;;
42092;SDS011;28974;50.316;18.960;2022-10-04T15:36:13;13.45;;;5.05;;
42092;SDS011;28974;50.316;18.960;2022-10-04T16:00:33;22.33;;;5.70;;
42092;SDS011;28974;50.316;18.960;2022-10-04T16:24:57;26.93;;;8.90;;
42092;SDS011;28974;50.316;18.960;2022-10-04T16:36:59;34.15;;;11.88;;
42092;SDS011;28974;50.316;18.960;2022-10-04T17:13:33;84.85;;;38.80;;
42092;SDS011;28974;50.316;18.960;2022-10-04T17:37:46;115.22;;;51.03;;
42092;SDS011;28974;50.316;18.960;2022-10-04T17:49:55;114.67;;;50.10;;
42092;SDS011;28974;50.316;18.960;2022-10-04T18:02:43;107.45;;;45.08;;
42092;SDS011;28974;50.316;18.960;2022-10-04T18:14:49;128.68;;;51.42;;
42092;SDS011;28974;50.316;18.960;2022-10-04T18:27:00;131.32;;;57.85;;
42092;SDS011;28974;50.316;18.960;2022-10-04T19:15:46;137.55;;;63.35;;
42092;SDS011;28974;50.316;18.960;2022-10-04T19:27:56;154.02;;;66.95;;
42092;SDS011;28974;50.316;18.960;2022-10-04T20:04:22;117.07;;;49.83;;
42092;SDS011;28974;50.316;18.960;2022-10-04T20:28:47;158.57;;;69.57;;
42092;SDS011;28974;50.316;18.960;2022-10-04T20:40:49;134.50;;;56.42;;
42092;SDS011;28974;50.316;18.960;2022-10-04T20:52:52;149.55;;;64.85;;
42092;SDS011;28974;50.316;18.960;2022-10-04T21:04:53;128.00;;;53.15;;
42092;SDS011;28974;50.316;18.960;2022-10-04T21:16:56;242.57;;;100.80;;
42092;SDS011;28974;50.316;18.960;2022-10-04T21:28:57;235.93;;;108.30;;
42092;SDS011;28974;50.316;18.960;2022-10-04T21:40:57;114.53;;;44.83;;
42092;SDS011;28974;50.316;18.960;2022-10-04T21:52:58;90.85;;;38.05;;
42092;SDS011;28974;50.316;18.960;2022-10-04T22:04:58;96.27;;;35.47;;
42092;SDS011;28974;50.316;18.960;2022-10-04T22:16:59;76.38;;;34.17;;
42092;SDS011;28974;50.316;18.960;2022-10-04T22:28:59;79.88;;;31.70;;
42092;SDS011;28974;50.316;18.960;2022-10-04T22:40:59;72.65;;;30.98;;
42092;SDS011;28974;50.316;18.960;2022-10-04T22:53:01;71.00;;;31.00;;
42092;SDS011;28974;50.316;18.960;2022-10-04T23:05:13;74.60;;;32.35;;
42092;SDS011;28974;50.316;18.960;2022-10-04T23:17:24;78.45;;;32.08;;
42092;SDS011;28974;50.316;18.960;2022-10-04T23:29:26;71.57;;;31.13;;
42092;SDS011;28974;50.316;18.960;2022-10-04T23:41:29;79.28;;;33.97;;
42092;SDS011;28974;50.316;18.960;2022-10-04T23:53:30;107.88;;;41.20;;
